Royal Plm Beach, Florida
Current Conditions -  °F | °C
As of 9:53 AM on Thursday 23 Oct 2014 (Local Time) from KPBI Reporting Station
Light Rain Light Rain  
Wind Chill: 76°   Ceiling: 2800
Heat Index: 76°   Visibility: 10mi
Dew Point: 69°   Wind: 8mph
Humidity: 79%   Direction: 60°ENE
Pressure: 29.95"   Gusts: 18mph
Location:  26.5294°N, 80.3342°W
Report Text: KPBI 231353Z 06007G16KT 10SM -RA OVC028 24/21 A2995 RMK AO2 RAE07B37 SLP140 P0000 T02440206
Loading
Personal Weather Stations






























Interactive Weather Map
Tropical Storm Tracking
New forecast layout! Learn more

10-Day Weather Forecast

Advertisements
Track Severe Weather on mobile